Time;durP1;ratioP1;P1;durP2;ratioP2;P2;SDS_P1;SDS_P2;PMS_P1;PMS_P2;Temp;Humidity;BMP_temperature;BMP_pressure;BME280_temperature;BME280_humidity;BME280_pressure;Samples;Min_cycle;Max_cycle;Signal;HPM_P1;HPM_P2
2022/08/19 01:36:06;;;;;;;2.10;0.80;;;;;;;14.97;100.00;101463.59;10251610;29;20063;-76
2022/08/19 01:41:10;;;;;;;2.03;0.65;;;;;;;14.97;100.00;101458.41;10302568;28;20114;-77
2022/08/19 01:46:12;;;;;;;1.33;0.90;;;;;;;15.16;100.00;101447.44;10563029;28;20109;-79
2022/08/19 01:51:14;;;;;;;1.00;0.85;;;;;;;15.05;100.00;101456.81;10559894;28;20040;-77
2022/08/19 01:56:18;;;;;;;0.63;0.47;;;;;;;15.09;100.00;101447.34;10560145;28;20059;-78
2022/08/19 02:01:20;;;;;;;0.20;0.20;;;;;;;14.88;100.00;101453.94;10592244;28;20046;-78
2022/08/19 02:06:27;;;;;;;0.90;0.73;;;;;;;14.93;100.00;101446.22;10618727;28;20083;-77
2022/08/19 02:11:33;;;;;;;0.28;0.28;;;;;;;14.97;100.00;101443.69;10617904;28;20042;-79
2022/08/19 02:16:36;;;;;;;0.82;0.30;;;;;;;14.99;100.00;101441.13;10618096;28;20055;-77
2022/08/19 02:21:37;;;;;;;0.40;0.40;;;;;;;14.81;100.00;101432.19;10595765;28;20063;-78
2022/08/19 02:26:39;;;;;;;0.30;0.30;;;;;;;14.68;100.00;101435.44;10582094;28;20055;-79
2022/08/19 02:31:42;;;;;;;0.40;0.40;;;;;;;14.77;100.00;101450.25;10599275;28;20040;-77
2022/08/19 02:36:44;;;;;;;1.40;0.28;;;;;;;14.93;100.00;101467.00;10617175;28;20044;-77
2022/08/19 02:41:55;;;;;;;1.38;0.50;;;;;;;14.99;100.00;101459.31;10600962;28;20092;-79
2022/08/19 02:46:57;;;;;;;0.57;0.57;;;;;;;15.07;100.00;101470.69;10601389;28;20047;-76
2022/08/19 02:51:59;;;;;;;0.10;0.10;;;;;;;15.11;100.00;101475.06;10603192;28;20047;-77
2022/08/19 02:57:00;;;;;;;0.47;0.20;;;;;;;15.29;100.00;101482.28;10585467;28;20116;-76
2022/08/19 03:02:02;;;;;;;0.25;0.25;;;;;;;15.36;100.00;101478.06;10586888;28;20092;-76
2022/08/19 03:07:04;;;;;;;0.43;0.30;;;;;;;15.46;100.00;101482.53;10613297;28;20095;-77
2022/08/19 03:12:11;;;;;;;1.33;0.50;;;;;;;15.73;100.00;101483.78;10585400;28;20070;-77
2022/08/19 03:17:13;;;;;;;0.10;0.10;;;;;;;15.66;100.00;101466.38;10602992;28;20065;-76
2022/08/19 03:22:14;;;;;;;0.17;0.15;;;;;;;15.62;100.00;101469.75;10626617;28;20095;-76
2022/08/19 03:27:17;;;;;;;0.40;0.32;;;;;;;15.76;100.00;101468.22;10614220;28;20051;-76
2022/08/19 03:32:18;;;;;;;0.10;0.10;;;;;;;15.72;100.00;101466.44;10594305;28;20065;-76
2022/08/19 03:37:34;;;;;;;0.90;0.45;;;;;;;15.86;100.00;101469.28;10611673;28;20040;-77
2022/08/19 03:42:36;;;;;;;0.32;0.22;;;;;;;15.31;100.00;101474.50;10627655;28;20036;-77
2022/08/19 03:47:49;;;;;;;7.13;0.20;;;;;;;15.35;100.00;101481.50;10611280;28;20050;-76
2022/08/19 03:52:52;;;;;;;0.85;0.40;;;;;;;15.30;100.00;101467.59;10596211;28;20123;-76
2022/08/19 03:57:54;;;;;;;0.35;0.30;;;;;;;15.11;100.00;101462.09;10614019;28;20040;-77
2022/08/19 04:03:00;;;;;;;1.17;0.50;;;;;;;15.02;100.00;101459.34;10614796;28;20038;-76
2022/08/19 04:08:02;;;;;;;0.77;0.08;;;;;;;15.04;100.00;101452.47;10612906;28;20054;-77
2022/08/19 04:13:06;;;;;;;0.63;0.40;;;;;;;15.02;100.00;101456.75;10612515;28;20068;-76
2022/08/19 04:18:11;;;;;;;1.38;0.20;;;;;;;14.99;100.00;101456.72;10610371;28;20061;-77
2022/08/19 04:23:13;;;;;;;0.85;0.40;;;;;;;14.90;100.00;101455.69;10627059;28;20046;-77
2022/08/19 04:28:15;;;;;;;0.75;0.40;;;;;;;14.80;100.00;101453.78;10599630;28;20467;-78
2022/08/19 04:33:22;;;;;;;0.15;0.15;;;;;;;14.72;100.00;101448.47;10565974;28;20047;-77
2022/08/19 04:38:28;;;;;;;0.45;0.30;;;;;;;14.66;100.00;101455.28;10549335;28;20505;-77
2022/08/19 04:43:30;;;;;;;0.20;0.20;;;;;;;14.63;100.00;101457.78;10569495;28;20044;-77
2022/08/19 04:48:32;;;;;;;0.98;0.65;;;;;;;14.40;100.00;101451.31;10584853;28;20054;-78
2022/08/19 04:53:37;;;;;;;1.30;0.43;;;;;;;14.69;100.00;101463.13;10583645;28;20035;-77
2022/08/19 04:58:42;;;;;;;1.00;0.52;;;;;;;14.58;100.00;101461.16;10602534;28;20043;-77
2022/08/19 05:03:44;;;;;;;1.45;0.85;;;;;;;14.63;100.00;101457.78;10583214;28;20036;-77
2022/08/19 05:08:46;;;;;;;2.20;0.32;;;;;;;14.60;100.00;101464.66;10582431;28;20052;-77
2022/08/19 05:13:48;;;;;;;2.05;0.57;;;;;;;14.74;100.00;101471.84;10600658;28;20046;-78
2022/08/19 05:24:12;;;;;;;1.38;0.77;;;;;;;14.95;100.00;101470.47;10600240;28;20035;-77
2022/08/19 05:29:16;;;;;;;0.93;0.82;;;;;;;14.88;100.00;101472.97;10582382;28;20052;-77
2022/08/19 05:34:21;;;;;;;0.63;0.60;;;;;;;14.99;100.00;101477.47;10567387;28;20107;-77
2022/08/19 05:39:29;;;;;;;0.40;0.30;;;;;;;15.18;100.00;101474.31;10585863;28;20047;-78
2022/08/19 05:44:33;;;;;;;0.55;0.20;;;;;;;15.14;100.00;101462.16;10602984;28;20047;-78
2022/08/19 05:49:36;;;;;;;0.70;0.70;;;;;;;15.38;100.00;101468.53;10606603;28;20122;-77
2022/08/19 05:54:41;;;;;;;1.52;0.80;;;;;;;15.67;100.00;101476.78;10570836;28;20054;-78
2022/08/19 05:59:45;;;;;;;1.17;0.65;;;;;;;15.84;100.00;101482.22;10589414;28;20052;-77
2022/08/19 06:04:47;;;;;;;2.22;1.63;;;;;;;15.77;100.00;101495.94;10590358;28;20047;-77
2022/08/19 06:09:49;;;;;;;2.78;0.85;;;;;;;16.12;100.00;101503.38;10592381;28;20111;-78
2022/08/19 06:15:06;;;;;;;0.98;0.85;;;;;;;16.10;100.00;101493.81;10595931;28;20047;-78
2022/08/19 06:20:13;;;;;;;1.92;1.33;;;;;;;16.38;100.00;101502.81;10595807;28;20079;-77
2022/08/19 06:25:15;;;;;;;1.65;1.20;;;;;;;16.81;100.00;101508.47;10602900;28;20087;-77
2022/08/19 06:30:17;;;;;;;1.83;1.30;;;;;;;17.16;100.00;101506.22;10605744;28;20115;-76
2022/08/19 06:35:19;;;;;;;1.67;1.33;;;;;;;17.38;100.00;101508.13;10623172;28;20051;-76
2022/08/19 06:40:21;;;;;;;4.60;3.05;;;;;;;17.57;100.00;101503.03;10612875;28;20071;-77
2022/08/19 06:45:23;;;;;;;1.88;1.35;;;;;;;17.71;100.00;101501.38;10593267;28;20043;-75
2022/08/19 06:50:34;;;;;;;3.13;2.08;;;;;;;17.78;100.00;101491.88;10587021;28;20039;-76
2022/08/19 06:55:40;;;;;;;2.78;1.85;;;;;;;18.19;100.00;101495.56;10584710;28;20046;-76
2022/08/19 07:00:42;;;;;;;2.35;2.00;;;;;;;18.27;100.00;101490.38;10585464;28;20368;-75
2022/08/19 07:05:44;;;;;;;3.20;1.98;;;;;;;19.14;100.00;101481.81;10585910;28;20134;-76
2022/08/19 07:10:47;;;;;;;3.63;2.40;;;;;;;19.83;100.00;101435.50;10578218;28;20044;-77
2022/08/19 07:15:50;;;;;;;4.90;2.42;;;;;;;20.46;100.00;101450.03;10593860;28;20043;-75
2022/08/19 07:21:02;;;;;;;2.28;1.80;;;;;;;20.50;100.00;101441.28;10550007;28;20455;-76
2022/08/19 07:26:07;;;;;;;5.82;2.00;;;;;;;20.38;100.00;101434.38;10571997;28;20505;-77
2022/08/19 07:31:15;;;;;;;3.33;1.65;;;;;;;20.96;100.00;101433.97;10564353;28;20055;-76
2022/08/19 07:36:31;;;;;;;3.58;2.35;;;;;;;21.32;100.00;101413.53;10558473;28;20043;-76
2022/08/19 07:41:36;;;;;;;3.65;1.92;;;;;;;21.23;100.00;101409.25;10581355;28;20032;-75
2022/08/19 07:46:44;;;;;;;5.60;2.13;;;;;;;21.24;100.00;101416.22;10577114;28;20052;-74
2022/08/19 07:51:52;;;;;;;4.07;2.17;;;;;;;22.58;100.00;101411.03;10558676;28;20051;-76
2022/08/19 07:56:54;;;;;;;3.95;2.92;;;;;;;22.00;100.00;101412.75;10562041;28;20482;-78
2022/08/19 08:13:53;;;;;;;5.10;1.80;;;;;;;22.74;100.00;101409.03;10579882;28;20086;-75
2022/08/19 08:19:05;;;;;;;1.98;1.27;;;;;;;23.25;100.00;101387.09;10609289;28;20040;-75
2022/08/19 08:24:21;;;;;;;3.30;2.30;;;;;;;23.96;100.00;101392.69;10614463;28;20040;-76
2022/08/19 08:29:30;;;;;;;6.25;2.08;;;;;;;23.35;100.00;101402.69;10622577;28;20062;-76
2022/08/19 08:34:36;;;;;;;2.00;1.77;;;;;;;24.23;100.00;101385.06;10597397;28;20042;-77
2022/08/19 08:39:38;;;;;;;3.78;2.42;;;;;;;24.21;100.00;101390.34;10573883;28;20050;-78
2022/08/19 08:44:57;;;;;;;4.22;2.75;;;;;;;23.98;100.00;101383.00;10554030;28;20040;-75
2022/08/19 08:56:20;;;;;;;3.40;1.80;;;;;;;25.86;100.00;101354.34;10566399;28;20048;-75
2022/08/19 09:01:22;;;;;;;3.90;2.35;;;;;;;25.32;100.00;101357.66;10561784;27;20040;-77
2022/08/19 09:07:15;;;;;;;2.63;1.80;;;;;;;25.34;100.00;101345.31;10584481;28;20105;-77
2022/08/19 09:13:08;;;;;;;2.50;1.65;;;;;;;25.78;100.00;101341.41;10575851;28;20540;-76
2022/08/19 09:19:06;;;;;;;1.90;1.45;;;;;;;26.43;100.00;101339.34;10523320;28;20048;-78
2022/08/19 09:24:08;;;;;;;4.03;1.98;;;;;;;26.36;100.00;101343.94;10553945;28;20090;-77
2022/08/19 09:29:11;;;;;;;2.58;1.63;;;;;;;26.31;100.00;101340.63;10567598;28;20046;-75
2022/08/19 09:34:38;;;;;;;8.32;1.35;;;;;;;25.66;100.00;101332.94;10577791;28;20050;-75
2022/08/19 09:39:44;;;;;;;3.30;1.35;;;;;;;26.22;100.00;101336.50;10548293;28;20047;-75
2022/08/19 09:51:50;;;;;;;1.30;1.15;;;;;;;26.71;94.40;101343.66;10579123;28;20024;-76
2022/08/19 09:56:53;;;;;;;3.05;1.60;;;;;;;26.32;99.76;101344.13;10583628;28;20050;-76
2022/08/19 10:01:58;;;;;;;1.95;1.17;;;;;;;26.13;100.00;101336.81;10581777;28;20424;-75
2022/08/19 10:07:42;;;;;;;2.50;1.60;;;;;;;27.44;96.44;101334.03;10582207;28;20051;-75
2022/08/19 10:12:47;;;;;;;2.00;1.45;;;;;;;26.96;80.32;101337.56;10569843;28;20100;-74
2022/08/19 10:17:49;;;;;;;0.90;0.65;;;;;;;26.44;80.76;101346.34;10564558;28;20081;-75
2022/08/19 10:22:56;;;;;;;1.38;1.05;;;;;;;26.52;90.33;101344.31;10582919;28;20039;-75
2022/08/19 10:27:57;;;;;;;3.50;1.60;;;;;;;26.62;83.90;101342.22;10582203;28;20047;-75
2022/08/19 10:32:59;;;;;;;2.63;1.35;;;;;;;26.40;84.82;101339.44;10569544;28;20040;-75
2022/08/19 10:38:01;;;;;;;1.20;1.10;;;;;;;26.41;89.09;101338.53;10572530;28;20452;-75
2022/08/19 10:43:04;;;;;;;0.65;0.52;;;;;;;27.17;83.63;101326.19;10572949;28;20047;-75
2022/08/19 10:48:06;;;;;;;0.98;0.50;;;;;;;27.49;86.65;101321.50;10590319;28;20050;-74
2022/08/19 10:53:12;;;;;;;1.55;1.00;;;;;;;26.67;84.39;101326.22;10571853;28;20142;-74
2022/08/19 10:58:16;;;;;;;1.55;0.95;;;;;;;27.62;82.15;101310.41;10589951;28;20483;-75
2022/08/19 11:03:18;;;;;;;1.25;0.60;;;;;;;27.63;75.61;101325.38;10571190;28;20043;-74
2022/08/19 11:08:20;;;;;;;0.65;0.65;;;;;;;26.63;73.38;101335.13;10589708;28;20047;-74
2022/08/19 11:13:24;;;;;;;1.17;1.08;;;;;;;27.44;82.52;101323.44;10589402;28;20474;-74
2022/08/19 11:18:26;;;;;;;0.80;0.57;;;;;;;26.98;71.90;101317.22;10588909;28;20153;-75
2022/08/19 11:23:28;;;;;;;1.30;0.75;;;;;;;27.40;72.81;101316.53;10588732;28;20402;-74
2022/08/19 11:28:29;;;;;;;1.23;0.73;;;;;;;27.45;73.19;101324.31;10570928;28;20425;-74
2022/08/19 11:33:32;;;;;;;0.73;0.73;;;;;;;27.69;84.36;101312.78;10572009;28;20389;-75
2022/08/19 11:38:35;;;;;;;3.45;1.30;;;;;;;26.72;95.77;101319.84;10570019;28;20058;-74
2022/08/19 11:43:37;;;;;;;1.80;0.88;;;;;;;27.01;93.69;101319.72;10570019;28;20376;-75
2022/08/19 11:48:39;;;;;;;0.88;0.73;;;;;;;27.55;95.48;101315.97;10588100;28;20046;-76
2022/08/19 11:53:41;;;;;;;1.55;1.17;;;;;;;27.19;93.08;101308.47;10588027;28;20048;-75
2022/08/19 11:58:43;;;;;;;1.55;1.25;;;;;;;27.40;95.16;101311.22;10587482;28;20050;-74
2022/08/19 12:03:47;;;;;;;2.90;1.08;;;;;;;26.81;100.00;101320.47;10568648;28;20058;-75
2022/08/19 12:08:48;;;;;;;0.70;0.70;;;;;;;27.06;98.26;101317.81;10588179;28;20067;-75
2022/08/19 12:13:51;;;;;;;2.72;1.55;;;;;;;27.05;97.39;101316.91;10551956;28;20146;-74
2022/08/19 12:18:54;;;;;;;1.95;1.70;;;;;;;26.49;100.00;101333.84;10586879;28;20567;-76
2022/08/19 12:23:57;;;;;;;0.98;0.57;;;;;;;26.83;98.14;101324.78;10551831;28;20047;-75
2022/08/19 12:28:59;;;;;;;1.30;0.82;;;;;;;27.32;93.31;101314.19;10586544;28;20046;-75
2022/08/19 12:34:02;;;;;;;1.65;0.98;;;;;;;26.82;83.52;101325.69;10587959;28;20054;-76
2022/08/19 12:39:04;;;;;;;0.93;0.73;;;;;;;27.58;79.65;101324.72;10568464;28;20052;-75
2022/08/19 12:44:06;;;;;;;2.15;0.80;;;;;;;26.97;79.80;101318.97;10568098;28;20043;-75
2022/08/19 12:49:09;;;;;;;0.60;0.60;;;;;;;27.07;72.41;101324.78;10568642;28;20109;-75
2022/08/19 12:54:31;;;;;;;2.08;1.25;;;;;;;26.85;73.16;101320.28;10566911;28;20044;-75
2022/08/19 12:59:37;;;;;;;1.42;0.43;;;;;;;27.00;71.20;101318.00;10585500;28;20061;-76
2022/08/19 13:04:40;;;;;;;0.70;0.50;;;;;;;27.55;77.26;101309.81;10567573;28;20055;-75
2022/08/19 13:09:42;;;;;;;1.08;0.55;;;;;;;27.38;82.51;101302.47;10567036;28;20070;-76
2022/08/19 13:14:50;;;;;;;9.43;0.63;;;;;;;27.16;79.95;101298.00;10584794;28;20048;-74
2022/08/19 13:19:52;;;;;;;1.77;0.63;;;;;;;27.27;78.47;101297.59;10585336;28;20096;-75
2022/08/19 13:24:53;;;;;;;1.50;0.65;;;;;;;26.99;83.36;101296.00;10585070;28;20039;-75
2022/08/19 13:35:16;;;;;;;3.00;0.73;;;;;;;26.69;85.22;101282.09;10566069;28;20052;-75
2022/08/19 13:40:23;;;;;;;1.08;0.40;;;;;;;26.69;83.08;101279.47;10584673;28;20047;-75
2022/08/19 13:45:28;;;;;;;4.20;0.80;;;;;;;27.03;85.41;101275.59;10583623;28;20437;-75
2022/08/19 13:50:31;;;;;;;2.63;1.65;;;;;;;27.93;86.23;101266.84;10583784;28;20047;-75
2022/08/19 13:55:33;;;;;;;0.73;0.73;;;;;;;27.10;77.57;101270.94;10565955;28;20043;-75
2022/08/19 14:00:39;;;;;;;1.67;0.43;;;;;;;27.21;78.86;101266.09;10566350;28;20062;-76
2022/08/19 14:05:41;;;;;;;0.98;0.60;;;;;;;27.67;78.67;101260.81;10565675;28;21296;-75
2022/08/19 14:10:44;;;;;;;1.50;0.57;;;;;;;27.41;73.38;101254.75;10547116;28;20530;-75
2022/08/19 14:15:47;;;;;;;0.40;0.40;;;;;;;26.90;73.19;101254.91;10556961;28;20441;-74
2022/08/19 14:20:48;;;;;;;0.98;0.75;;;;;;;27.73;87.67;101244.69;10583529;28;20051;-75
2022/08/19 14:25:50;;;;;;;1.33;1.05;;;;;;;27.66;82.76;101243.22;10583554;28;20055;-75
2022/08/19 14:30:52;;;;;;;1.40;0.40;;;;;;;27.16;83.10;101245.13;10565092;28;20096;-76
2022/08/19 14:35:57;;;;;;;0.90;0.45;;;;;;;27.16;80.44;101229.25;10582654;28;20036;-74
2022/08/19 14:41:19;;;;;;;0.75;0.60;;;;;;;27.33;81.21;101233.03;10565280;28;20046;-75
2022/08/19 14:46:26;;;;;;;0.68;0.60;;;;;;;26.87;89.95;101244.44;10583887;28;20043;-76
2022/08/19 14:51:30;;;;;;;0.40;0.40;;;;;;;26.69;91.24;101235.38;10582928;28;20464;-75
2022/08/19 14:56:32;;;;;;;1.65;0.98;;;;;;;26.17;96.71;101242.50;10567046;28;20123;-75
2022/08/19 15:01:34;;;;;;;1.05;0.93;;;;;;;26.88;100.00;101235.59;10567672;28;20059;-76
2022/08/19 15:06:37;;;;;;;1.50;1.05;;;;;;;27.35;95.18;101239.13;10564994;28;20487;-76
2022/08/19 15:11:38;;;;;;;2.15;1.45;;;;;;;27.16;100.00;101238.97;10597495;28;20443;-75
2022/08/19 15:16:41;;;;;;;0.80;0.65;;;;;;;26.97;98.97;101246.75;10582278;28;20033;-76
2022/08/19 15:21:43;;;;;;;2.03;1.13;;;;;;;26.67;100.00;101245.13;10618861;28;20371;-75
2022/08/19 15:26:45;;;;;;;2.40;0.88;;;;;;;26.32;100.00;101247.25;10593763;28;20437;-75
2022/08/19 15:31:46;;;;;;;2.58;1.13;;;;;;;25.84;100.00;101266.47;10573797;28;20051;-75
2022/08/19 15:36:49;;;;;;;1.05;0.57;;;;;;;25.64;100.00;101260.91;10574212;28;20043;-75
2022/08/19 15:41:51;;;;;;;1.77;1.27;;;;;;;25.48;100.00;101268.41;10592881;28;20036;-76
2022/08/19 15:46:53;;;;;;;4.15;2.35;;;;;;;25.01;100.00;101282.09;10596505;28;20040;-76
2022/08/19 15:51:56;;;;;;;2.38;1.83;;;;;;;24.95;100.00;101298.06;10559067;28;20100;-75
2022/08/19 16:07:42;;;;;;;1.45;1.05;;;;;;;24.64;100.00;101322.59;10604459;28;20495;-75
2022/08/19 16:12:44;;;;;;;2.33;1.95;;;;;;;24.72;100.00;101322.44;10579654;28;20050;-75
2022/08/19 16:17:47;;;;;;;1.48;1.17;;;;;;;24.96;100.00;101320.88;10575945;28;20081;-75
2022/08/19 16:22:58;;;;;;;1.80;1.65;;;;;;;24.35;100.00;101328.63;10597568;28;20044;-76
2022/08/19 16:27:59;;;;;;;1.27;1.13;;;;;;;24.23;100.00;101329.78;10577978;28;20067;-75
2022/08/19 16:33:09;;;;;;;;;;;;;;;24.08;100.00;101334.53;10570461;28;20043;-76
2022/08/19 16:38:10;;;;;;;1.55;1.00;;;;;;;24.03;100.00;101346.91;10603285;28;20376;-76
2022/08/19 16:43:12;;;;;;;2.25;0.77;;;;;;;23.51;100.00;101355.91;10602243;28;20041;-76
2022/08/19 16:48:14;;;;;;;0.55;0.50;;;;;;;23.36;100.00;101357.97;10584036;28;20437;-77
2022/08/19 16:53:19;;;;;;;0.35;0.30;;;;;;;23.12;100.00;101354.91;10579087;28;20046;-76
2022/08/19 17:05:48;;;;;;;0.08;0.08;;;;;;;23.17;100.00;101372.34;10558545;28;20155;-76
2022/08/19 17:10:53;;;;;;;0.15;0.10;;;;;;;23.12;100.00;101365.41;10589155;27;20047;-75
2022/08/19 17:16:18;;;;;;;0.20;0.20;;;;;;;23.12;100.00;101375.91;10582698;28;20050;-75
2022/08/19 17:21:28;;;;;;;0.40;0.30;;;;;;;23.04;100.00;101372.59;10618778;27;20057;-76
2022/08/19 17:26:30;;;;;;;0.20;0.20;;;;;;;23.18;100.00;101385.50;10596542;28;20034;-76
2022/08/19 17:31:33;;;;;;;0.50;0.43;;;;;;;23.03;100.00;101388.38;10586488;28;20058;-76
2022/08/19 17:36:35;;;;;;;1.70;0.32;;;;;;;22.91;100.00;101392.97;10576266;27;20122;-76
2022/08/19 17:41:37;;;;;;;0.47;0.30;;;;;;;23.00;100.00;101391.06;10598588;27;20039;-76
2022/08/19 17:46:39;;;;;;;0.70;0.63;;;;;;;22.84;100.00;101407.09;10628247;27;20031;-75
2022/08/19 17:52:17;;;;;;;0.40;0.40;;;;;;;22.76;100.00;101409.84;10571367;28;20054;-75
2022/08/19 17:57:29;;;;;;;0.60;0.43;;;;;;;22.63;100.00;101419.72;10589433;28;20055;-77
2022/08/19 18:02:31;;;;;;;0.30;0.30;;;;;;;22.83;100.00;101418.50;10568070;28;20047;-75
2022/08/19 18:07:34;;;;;;;1.27;0.82;;;;;;;22.65;100.00;101417.06;10575419;28;20044;-76
2022/08/19 18:12:39;;;;;;;0.40;0.22;;;;;;;22.64;100.00;101399.56;10574286;28;20058;-75
2022/08/19 18:17:41;;;;;;;0.32;0.30;;;;;;;22.28;100.00;101413.19;10590231;28;20084;-76
2022/08/19 18:22:46;;;;;;;0.47;0.40;;;;;;;22.46;100.00;101412.09;10578741;28;20052;-76
2022/08/19 18:27:48;;;;;;;0.40;0.40;;;;;;;22.43;100.00;101401.66;10591120;28;20035;-76
2022/08/19 18:32:51;;;;;;;0.20;0.20;;;;;;;22.31;100.00;101404.41;10602423;28;20036;-77
2022/08/19 18:37:58;;;;;;;1.08;0.40;;;;;;;22.16;100.00;101402.91;10539099;28;20052;-75
2022/08/19 18:53:44;;;;;;;1.45;0.30;;;;;;;22.06;100.00;101407.41;10604656;28;20046;-76
2022/08/19 18:58:45;;;;;;;0.28;0.22;;;;;;;21.98;100.00;101414.53;10587232;28;20036;-75
2022/08/19 19:03:52;;;;;;;1.40;0.40;;;;;;;22.00;100.00;101423.25;10586492;28;20047;-76
2022/08/19 19:08:55;;;;;;;0.40;0.32;;;;;;;21.93;100.00;101426.84;10547412;28;20054;-76
2022/08/19 19:14:00;;;;;;;0.08;0.03;;;;;;;21.70;100.00;101441.97;10573140;28;20040;-75
2022/08/19 19:19:05;;;;;;;0.00;0.00;;;;;;;21.67;100.00;101457.72;10569023;28;20043;-75
2022/08/19 19:24:07;;;;;;;0.30;0.13;;;;;;;21.63;100.00;101455.19;10576798;28;20043;-75
2022/08/19 19:29:09;;;;;;;0.10;0.10;;;;;;;21.66;100.00;101463.00;10570595;28;20040;-75
2022/08/19 19:34:13;;;;;;;0.45;0.45;;;;;;;21.12;100.00;101474.84;10570441;28;20086;-75
2022/08/19 19:39:30;;;;;;;1.85;0.52;;;;;;;21.47;100.00;101478.03;10605917;28;20043;-76
2022/08/19 19:44:50;;;;;;;0.60;0.38;;;;;;;21.61;100.00;101475.28;10586981;28;20082;-75
2022/08/19 19:49:54;;;;;;;0.30;0.30;;;;;;;21.74;100.00;101470.78;10552798;28;20138;-75
2022/08/19 19:55:19;;;;;;;0.70;0.40;;;;;;;21.74;100.00;101474.25;10618815;28;20032;-75
2022/08/19 20:00:21;;;;;;;0.40;0.20;;;;;;;21.71;100.00;101469.03;10574297;28;20039;-75
2022/08/19 20:05:23;;;;;;;0.57;0.38;;;;;;;21.68;100.00;101463.84;10604242;28;20036;-75
2022/08/19 20:10:25;;;;;;;0.43;0.20;;;;;;;21.55;100.00;101469.22;10589405;28;20573;-76
2022/08/19 20:15:28;;;;;;;0.57;0.40;;;;;;;21.60;100.00;101470.94;10570828;28;20073;-74
2022/08/19 20:20:30;;;;;;;0.38;0.30;;;;;;;21.65;100.00;101469.13;10582721;28;20044;-76
2022/08/19 20:25:33;;;;;;;2.08;0.30;;;;;;;21.54;100.00;101477.94;10569147;28;20411;-75
2022/08/19 20:30:34;;;;;;;0.82;0.30;;;;;;;21.59;100.00;101477.06;10596226;28;20467;-74
2022/08/19 20:35:39;;;;;;;0.63;0.50;;;;;;;21.47;100.00;101485.88;10600978;28;20063;-77
2022/08/19 20:40:41;;;;;;;0.30;0.30;;;;;;;21.38;100.00;101498.19;10574009;28;20048;-77
2022/08/19 20:45:43;;;;;;;0.40;0.40;;;;;;;21.26;100.00;101493.06;10577247;28;20047;-76
2022/08/19 20:50:46;;;;;;;0.73;0.30;;;;;;;21.45;100.00;101508.59;10619084;28;20032;-76
2022/08/19 20:55:49;;;;;;;0.15;0.15;;;;;;;21.20;100.00;101503.63;10628344;28;20070;-77
2022/08/19 21:00:54;;;;;;;0.00;0.00;;;;;;;21.33;100.00;101509.63;10605888;28;20119;-75
2022/08/19 21:05:56;;;;;;;0.55;0.35;;;;;;;21.23;100.00;101514.94;10613157;28;20065;-77
2022/08/19 21:10:58;;;;;;;2.80;0.35;;;;;;;21.19;100.00;101502.72;10597362;28;20048;-78
2022/08/19 21:15:59;;;;;;;3.95;1.10;;;;;;;21.03;100.00;101503.78;10611609;28;20062;-76
2022/08/19 21:21:01;;;;;;;0.45;0.45;;;;;;;21.12;100.00;101511.53;10576703;28;20063;-79
2022/08/19 21:26:04;;;;;;;2.58;0.80;;;;;;;21.18;100.00;101563.03;10596817;28;20040;-77
2022/08/19 21:31:09;;;;;;;0.95;0.40;;;;;;;21.09;100.00;101563.97;10618875;28;20030;-78
2022/08/19 21:36:11;;;;;;;0.77;0.60;;;;;;;20.98;100.00;101566.66;10625340;27;20030;-78
2022/08/19 21:41:12;;;;;;;0.73;0.52;;;;;;;20.97;100.00;101561.41;10610911;28;20055;-78
2022/08/19 21:46:15;;;;;;;0.40;0.30;;;;;;;20.82;100.00;101550.16;10606349;28;20074;-77
2022/08/19 21:51:16;;;;;;;0.22;0.20;;;;;;;20.78;100.00;101558.94;10603951;28;20057;-77
2022/08/19 21:56:18;;;;;;;4.05;0.70;;;;;;;20.99;100.00;101562.28;10608677;28;20106;-77
2022/08/19 22:08:01;;;;;;;1.23;0.40;;;;;;;20.66;100.00;101583.41;10599011;28;20028;-78
2022/08/19 22:13:03;;;;;;;0.65;0.63;;;;;;;20.75;100.00;101585.13;10596114;28;20134;-77
2022/08/19 22:18:04;;;;;;;0.25;0.15;;;;;;;20.71;100.00;101584.25;10598735;28;20043;-78
2022/08/19 22:23:06;;;;;;;0.22;0.17;;;;;;;20.63;100.00;101599.13;10597790;28;20051;-76
2022/08/19 22:28:11;;;;;;;1.23;0.73;;;;;;;20.51;100.00;101601.81;10585061;28;20048;-77
2022/08/19 22:33:16;;;;;;;1.25;0.50;;;;;;;20.61;100.00;101591.28;10601052;28;20044;-76
2022/08/19 22:38:18;;;;;;;1.55;0.22;;;;;;;20.65;100.00;101604.38;10623744;28;20041;-77
2022/08/19 22:43:23;;;;;;;0.30;0.20;;;;;;;20.58;100.00;101612.25;10619170;28;20040;-77
2022/08/19 22:48:28;;;;;;;3.15;0.50;;;;;;;20.61;100.00;101614.84;10573154;28;20091;-77
2022/08/19 22:53:31;;;;;;;0.85;0.43;;;;;;;20.65;100.00;101614.84;10597904;28;20063;-77
2022/08/19 22:58:35;;;;;;;0.65;0.50;;;;;;;20.46;100.00;101614.91;10584987;28;20048;-76
2022/08/19 23:03:38;;;;;;;0.50;0.30;;;;;;;20.47;100.00;101615.78;10595933;28;20513;-77
2022/08/19 23:08:41;;;;;;;0.30;0.25;;;;;;;20.45;100.00;101626.25;10577517;28;20058;-76
2022/08/19 23:13:44;;;;;;;0.50;0.35;;;;;;;20.40;100.00;101620.16;10599683;28;21010;-76
2022/08/19 23:18:45;;;;;;;0.30;0.20;;;;;;;20.34;100.00;101623.66;10597323;28;20046;-76
2022/08/19 23:23:47;;;;;;;0.98;0.20;;;;;;;20.35;100.00;101627.16;10599022;28;20047;-77
2022/08/19 23:34:10;;;;;;;0.77;0.30;;;;;;;20.31;100.00;101614.94;10601493;28;20915;-77
2022/08/19 23:39:11;;;;;;;0.75;0.40;;;;;;;20.25;100.00;101627.19;10614094;28;20048;-77
2022/08/19 23:44:13;;;;;;;0.20;0.20;;;;;;;20.30;100.00;101619.34;10593107;28;20040;-76
2022/08/19 23:49:15;;;;;;;0.47;0.30;;;;;;;20.27;100.00;101630.69;10600301;28;20495;-76
2022/08/19 23:54:17;;;;;;;1.30;0.52;;;;;;;20.34;100.00;101626.28;10601215;28;20047;-77
2022/08/19 23:59:19;;;;;;;0.75;0.55;;;;;;;20.37;100.00;101617.53;10596422;28;20073;-77
